sensor_id;sensor_type;location;lat;lon;timestamp;P1;durP1;ratioP1;P2;durP2;ratioP2
21705;SDS011;11014;53.076;18.208;2022-08-25T00:00:20;7.88;;;5.45;;
21705;SDS011;11014;53.076;18.208;2022-08-25T00:03:08;8.82;;;5.05;;
21705;SDS011;11014;53.076;18.208;2022-08-25T00:05:38;8.68;;;5.18;;
21705;SDS011;11014;53.076;18.208;2022-08-25T00:08:07;7.07;;;5.10;;
21705;SDS011;11014;53.076;18.208;2022-08-25T00:10:36;9.02;;;4.97;;
21705;SDS011;11014;53.076;18.208;2022-08-25T00:13:05;7.03;;;4.88;;
21705;SDS011;11014;53.076;18.208;2022-08-25T00:15:34;6.03;;;4.53;;
21705;SDS011;11014;53.076;18.208;2022-08-25T00:18:02;6.18;;;4.70;;
21705;SDS011;11014;53.076;18.208;2022-08-25T00:20:43;5.40;;;4.80;;
21705;SDS011;11014;53.076;18.208;2022-08-25T00:23:16;8.00;;;4.90;;
21705;SDS011;11014;53.076;18.208;2022-08-25T00:25:45;7.82;;;4.78;;
21705;SDS011;11014;53.076;18.208;2022-08-25T00:28:14;5.40;;;4.65;;
21705;SDS011;11014;53.076;18.208;2022-08-25T00:30:43;8.77;;;4.60;;
21705;SDS011;11014;53.076;18.208;2022-08-25T00:33:12;5.55;;;4.82;;
21705;SDS011;11014;53.076;18.208;2022-08-25T00:35:41;8.90;;;5.00;;
21705;SDS011;11014;53.076;18.208;2022-08-25T00:38:11;7.28;;;4.68;;
21705;SDS011;11014;53.076;18.208;2022-08-25T00:40:39;7.57;;;4.90;;
21705;SDS011;11014;53.076;18.208;2022-08-25T00:43:09;6.60;;;4.95;;
21705;SDS011;11014;53.076;18.208;2022-08-25T00:45:38;6.07;;;5.00;;
21705;SDS011;11014;53.076;18.208;2022-08-25T00:48:07;9.60;;;5.10;;
21705;SDS011;11014;53.076;18.208;2022-08-25T00:50:35;7.50;;;4.95;;
21705;SDS011;11014;53.076;18.208;2022-08-25T00:53:04;5.97;;;4.70;;
21705;SDS011;11014;53.076;18.208;2022-08-25T00:55:35;6.97;;;4.80;;
21705;SDS011;11014;53.076;18.208;2022-08-25T00:58:15;6.40;;;5.20;;
21705;SDS011;11014;53.076;18.208;2022-08-25T01:00:48;7.43;;;5.07;;
21705;SDS011;11014;53.076;18.208;2022-08-25T01:03:19;5.90;;;4.80;;
21705;SDS011;11014;53.076;18.208;2022-08-25T01:05:59;7.78;;;5.50;;
21705;SDS011;11014;53.076;18.208;2022-08-25T01:08:29;8.80;;;6.28;;
21705;SDS011;11014;53.076;18.208;2022-08-25T01:11:00;8.18;;;5.47;;
21705;SDS011;11014;53.076;18.208;2022-08-25T01:13:40;7.65;;;6.05;;
21705;SDS011;11014;53.076;18.208;2022-08-25T01:16:15;6.97;;;5.65;;
21705;SDS011;11014;53.076;18.208;2022-08-25T01:18:48;7.40;;;6.30;;
21705;SDS011;11014;53.076;18.208;2022-08-25T01:21:20;9.20;;;5.95;;
21705;SDS011;11014;53.076;18.208;2022-08-25T01:23:51;7.00;;;5.70;;
21705;SDS011;11014;53.076;18.208;2022-08-25T01:26:21;7.95;;;6.57;;
21705;SDS011;11014;53.076;18.208;2022-08-25T01:28:58;9.27;;;6.43;;
21705;SDS011;11014;53.076;18.208;2022-08-25T01:31:48;10.65;;;6.82;;
21705;SDS011;11014;53.076;18.208;2022-08-25T01:34:19;8.75;;;7.25;;
21705;SDS011;11014;53.076;18.208;2022-08-25T01:36:48;9.10;;;6.82;;
21705;SDS011;11014;53.076;18.208;2022-08-25T01:39:16;10.05;;;6.70;;
21705;SDS011;11014;53.076;18.208;2022-08-25T01:41:53;7.65;;;6.78;;
21705;SDS011;11014;53.076;18.208;2022-08-25T01:44:32;9.52;;;7.65;;
21705;SDS011;11014;53.076;18.208;2022-08-25T01:49:32;9.82;;;7.93;;
21705;SDS011;11014;53.076;18.208;2022-08-25T01:52:04;9.88;;;6.82;;
21705;SDS011;11014;53.076;18.208;2022-08-25T01:54:39;9.38;;;8.07;;
21705;SDS011;11014;53.076;18.208;2022-08-25T01:57:07;8.07;;;6.88;;
21705;SDS011;11014;53.076;18.208;2022-08-25T01:59:36;8.35;;;7.22;;
21705;SDS011;11014;53.076;18.208;2022-08-25T02:02:05;11.88;;;7.13;;
21705;SDS011;11014;53.076;18.208;2022-08-25T02:04:33;10.25;;;7.13;;
21705;SDS011;11014;53.076;18.208;2022-08-25T02:07:03;10.75;;;7.65;;
21705;SDS011;11014;53.076;18.208;2022-08-25T02:09:34;10.05;;;6.85;;
21705;SDS011;11014;53.076;18.208;2022-08-25T02:12:04;10.73;;;7.55;;
21705;SDS011;11014;53.076;18.208;2022-08-25T02:14:33;9.90;;;7.38;;
21705;SDS011;11014;53.076;18.208;2022-08-25T02:17:03;9.05;;;7.22;;
21705;SDS011;11014;53.076;18.208;2022-08-25T02:19:32;9.13;;;6.97;;
21705;SDS011;11014;53.076;18.208;2022-08-25T02:22:00;11.57;;;7.05;;
21705;SDS011;11014;53.076;18.208;2022-08-25T02:24:29;12.93;;;7.63;;
21705;SDS011;11014;53.076;18.208;2022-08-25T02:26:57;7.82;;;6.57;;
21705;SDS011;11014;53.076;18.208;2022-08-25T02:29:28;10.98;;;8.13;;
21705;SDS011;11014;53.076;18.208;2022-08-25T02:31:57;10.13;;;7.35;;
21705;SDS011;11014;53.076;18.208;2022-08-25T02:34:25;9.23;;;7.25;;
21705;SDS011;11014;53.076;18.208;2022-08-25T02:36:54;8.65;;;6.43;;
21705;SDS011;11014;53.076;18.208;2022-08-25T02:39:23;11.50;;;8.13;;
21705;SDS011;11014;53.076;18.208;2022-08-25T02:41:52;10.85;;;7.13;;
21705;SDS011;11014;53.076;18.208;2022-08-25T02:44:20;10.32;;;7.25;;
21705;SDS011;11014;53.076;18.208;2022-08-25T02:46:48;11.40;;;6.75;;
21705;SDS011;11014;53.076;18.208;2022-08-25T02:49:17;9.85;;;7.25;;
21705;SDS011;11014;53.076;18.208;2022-08-25T02:51:45;12.50;;;8.13;;
21705;SDS011;11014;53.076;18.208;2022-08-25T02:54:13;8.85;;;7.95;;
21705;SDS011;11014;53.076;18.208;2022-08-25T02:56:42;12.25;;;8.40;;
21705;SDS011;11014;53.076;18.208;2022-08-25T02:59:11;10.88;;;7.85;;
21705;SDS011;11014;53.076;18.208;2022-08-25T03:01:39;8.85;;;7.20;;
21705;SDS011;11014;53.076;18.208;2022-08-25T03:04:08;9.93;;;7.50;;
21705;SDS011;11014;53.076;18.208;2022-08-25T03:06:37;9.25;;;6.85;;
21705;SDS011;11014;53.076;18.208;2022-08-25T03:09:05;9.48;;;7.80;;
21705;SDS011;11014;53.076;18.208;2022-08-25T03:11:34;11.13;;;7.55;;
21705;SDS011;11014;53.076;18.208;2022-08-25T03:14:07;9.70;;;7.78;;
21705;SDS011;11014;53.076;18.208;2022-08-25T03:16:38;14.52;;;8.15;;
21705;SDS011;11014;53.076;18.208;2022-08-25T03:19:08;9.80;;;7.60;;
21705;SDS011;11014;53.076;18.208;2022-08-25T03:21:37;11.77;;;7.78;;
21705;SDS011;11014;53.076;18.208;2022-08-25T03:24:06;9.50;;;7.20;;
21705;SDS011;11014;53.076;18.208;2022-08-25T03:26:34;9.85;;;7.88;;
21705;SDS011;11014;53.076;18.208;2022-08-25T03:29:25;11.60;;;7.57;;
21705;SDS011;11014;53.076;18.208;2022-08-25T03:31:59;11.20;;;7.97;;
21705;SDS011;11014;53.076;18.208;2022-08-25T03:34:28;14.35;;;8.68;;
21705;SDS011;11014;53.076;18.208;2022-08-25T03:36:57;9.13;;;8.18;;
21705;SDS011;11014;53.076;18.208;2022-08-25T03:39:26;11.07;;;7.82;;
21705;SDS011;11014;53.076;18.208;2022-08-25T03:41:56;10.35;;;8.30;;
21705;SDS011;11014;53.076;18.208;2022-08-25T03:44:24;11.93;;;8.10;;
21705;SDS011;11014;53.076;18.208;2022-08-25T03:46:52;13.73;;;8.32;;
21705;SDS011;11014;53.076;18.208;2022-08-25T03:49:21;11.20;;;7.90;;
21705;SDS011;11014;53.076;18.208;2022-08-25T03:51:51;12.52;;;8.23;;
21705;SDS011;11014;53.076;18.208;2022-08-25T03:54:22;9.80;;;8.10;;
21705;SDS011;11014;53.076;18.208;2022-08-25T03:56:52;13.10;;;7.95;;
21705;SDS011;11014;53.076;18.208;2022-08-25T03:59:20;11.65;;;8.23;;
21705;SDS011;11014;53.076;18.208;2022-08-25T04:01:49;10.38;;;8.20;;
21705;SDS011;11014;53.076;18.208;2022-08-25T04:04:22;10.48;;;7.57;;
21705;SDS011;11014;53.076;18.208;2022-08-25T04:06:51;10.40;;;8.02;;
21705;SDS011;11014;53.076;18.208;2022-08-25T04:09:20;11.82;;;8.07;;
21705;SDS011;11014;53.076;18.208;2022-08-25T04:11:49;9.52;;;7.47;;
21705;SDS011;11014;53.076;18.208;2022-08-25T04:14:20;8.10;;;7.10;;
21705;SDS011;11014;53.076;18.208;2022-08-25T04:16:50;9.13;;;7.00;;
21705;SDS011;11014;53.076;18.208;2022-08-25T04:19:20;10.35;;;7.47;;
21705;SDS011;11014;53.076;18.208;2022-08-25T04:21:49;9.43;;;7.13;;
21705;SDS011;11014;53.076;18.208;2022-08-25T04:24:23;8.00;;;6.95;;
21705;SDS011;11014;53.076;18.208;2022-08-25T04:26:52;8.40;;;6.90;;
21705;SDS011;11014;53.076;18.208;2022-08-25T04:29:21;9.00;;;6.97;;
21705;SDS011;11014;53.076;18.208;2022-08-25T04:32:17;7.85;;;6.88;;
21705;SDS011;11014;53.076;18.208;2022-08-25T04:34:50;9.23;;;6.95;;
21705;SDS011;11014;53.076;18.208;2022-08-25T04:37:19;9.23;;;6.95;;
21705;SDS011;11014;53.076;18.208;2022-08-25T04:39:47;8.55;;;6.88;;
21705;SDS011;11014;53.076;18.208;2022-08-25T04:42:16;13.23;;;7.70;;
21705;SDS011;11014;53.076;18.208;2022-08-25T04:44:44;11.10;;;7.32;;
21705;SDS011;11014;53.076;18.208;2022-08-25T04:47:12;9.18;;;7.30;;
21705;SDS011;11014;53.076;18.208;2022-08-25T04:49:41;8.70;;;7.10;;
21705;SDS011;11014;53.076;18.208;2022-08-25T04:52:10;11.40;;;7.15;;
21705;SDS011;11014;53.076;18.208;2022-08-25T04:54:41;10.57;;;7.28;;
21705;SDS011;11014;53.076;18.208;2022-08-25T04:57:11;9.35;;;7.00;;
21705;SDS011;11014;53.076;18.208;2022-08-25T04:59:39;13.25;;;7.07;;
21705;SDS011;11014;53.076;18.208;2022-08-25T05:02:08;8.40;;;6.90;;
21705;SDS011;11014;53.076;18.208;2022-08-25T05:04:36;10.02;;;6.78;;
21705;SDS011;11014;53.076;18.208;2022-08-25T05:07:05;11.80;;;7.07;;
21705;SDS011;11014;53.076;18.208;2022-08-25T05:09:34;9.30;;;6.60;;
21705;SDS011;11014;53.076;18.208;2022-08-25T05:12:03;9.07;;;6.28;;
21705;SDS011;11014;53.076;18.208;2022-08-25T05:14:33;7.57;;;6.47;;
21705;SDS011;11014;53.076;18.208;2022-08-25T05:17:02;12.48;;;7.28;;
21705;SDS011;11014;53.076;18.208;2022-08-25T05:19:32;9.23;;;6.80;;
21705;SDS011;11014;53.076;18.208;2022-08-25T05:22:00;11.02;;;6.75;;
21705;SDS011;11014;53.076;18.208;2022-08-25T05:24:29;8.90;;;6.43;;
21705;SDS011;11014;53.076;18.208;2022-08-25T05:26:57;8.63;;;7.10;;
21705;SDS011;11014;53.076;18.208;2022-08-25T05:29:25;8.35;;;6.25;;
21705;SDS011;11014;53.076;18.208;2022-08-25T05:31:54;10.00;;;6.60;;
21705;SDS011;11014;53.076;18.208;2022-08-25T05:34:23;8.30;;;6.90;;
21705;SDS011;11014;53.076;18.208;2022-08-25T05:36:52;9.55;;;6.88;;
21705;SDS011;11014;53.076;18.208;2022-08-25T05:39:21;8.07;;;6.88;;
21705;SDS011;11014;53.076;18.208;2022-08-25T05:41:51;10.27;;;7.05;;
21705;SDS011;11014;53.076;18.208;2022-08-25T05:44:19;7.55;;;6.70;;
21705;SDS011;11014;53.076;18.208;2022-08-25T05:46:48;8.25;;;6.68;;
21705;SDS011;11014;53.076;18.208;2022-08-25T05:49:17;10.60;;;7.18;;
21705;SDS011;11014;53.076;18.208;2022-08-25T05:51:46;8.02;;;6.25;;
21705;SDS011;11014;53.076;18.208;2022-08-25T05:54:14;8.95;;;6.93;;
21705;SDS011;11014;53.076;18.208;2022-08-25T05:56:43;9.13;;;6.47;;
21705;SDS011;11014;53.076;18.208;2022-08-25T05:59:14;8.77;;;6.05;;
21705;SDS011;11014;53.076;18.208;2022-08-25T06:01:42;8.55;;;6.55;;
21705;SDS011;11014;53.076;18.208;2022-08-25T06:04:29;12.50;;;6.55;;
21705;SDS011;11014;53.076;18.208;2022-08-25T06:06:59;7.72;;;6.22;;
21705;SDS011;11014;53.076;18.208;2022-08-25T06:09:27;8.32;;;6.43;;
21705;SDS011;11014;53.076;18.208;2022-08-25T06:11:55;6.55;;;5.95;;
21705;SDS011;11014;53.076;18.208;2022-08-25T06:14:24;11.30;;;6.70;;
21705;SDS011;11014;53.076;18.208;2022-08-25T06:16:52;8.52;;;6.38;;
21705;SDS011;11014;53.076;18.208;2022-08-25T06:19:22;8.60;;;6.55;;
21705;SDS011;11014;53.076;18.208;2022-08-25T06:21:56;8.75;;;5.90;;
21705;SDS011;11014;53.076;18.208;2022-08-25T06:24:26;8.38;;;6.45;;
21705;SDS011;11014;53.076;18.208;2022-08-25T06:26:55;8.30;;;6.78;;
21705;SDS011;11014;53.076;18.208;2022-08-25T06:29:24;7.82;;;6.10;;
21705;SDS011;11014;53.076;18.208;2022-08-25T06:31:53;10.07;;;6.47;;
21705;SDS011;11014;53.076;18.208;2022-08-25T06:34:21;7.22;;;5.95;;
21705;SDS011;11014;53.076;18.208;2022-08-25T06:36:51;7.43;;;6.22;;
21705;SDS011;11014;53.076;18.208;2022-08-25T06:39:20;7.70;;;6.63;;
21705;SDS011;11014;53.076;18.208;2022-08-25T06:41:50;6.95;;;6.25;;
21705;SDS011;11014;53.076;18.208;2022-08-25T06:44:20;7.65;;;6.20;;
21705;SDS011;11014;53.076;18.208;2022-08-25T06:46:49;8.45;;;6.03;;
21705;SDS011;11014;53.076;18.208;2022-08-25T06:49:18;8.68;;;6.35;;
21705;SDS011;11014;53.076;18.208;2022-08-25T06:51:47;7.40;;;5.90;;
21705;SDS011;11014;53.076;18.208;2022-08-25T06:54:15;8.35;;;6.00;;
21705;SDS011;11014;53.076;18.208;2022-08-25T06:56:44;7.63;;;5.88;;
21705;SDS011;11014;53.076;18.208;2022-08-25T06:59:12;8.15;;;6.10;;
21705;SDS011;11014;53.076;18.208;2022-08-25T07:01:41;8.10;;;5.85;;
21705;SDS011;11014;53.076;18.208;2022-08-25T07:04:10;7.00;;;6.20;;
21705;SDS011;11014;53.076;18.208;2022-08-25T07:06:40;6.45;;;5.55;;
21705;SDS011;11014;53.076;18.208;2022-08-25T07:09:09;7.57;;;6.07;;
21705;SDS011;11014;53.076;18.208;2022-08-25T07:11:39;7.07;;;5.97;;
21705;SDS011;11014;53.076;18.208;2022-08-25T07:14:08;6.32;;;5.72;;
21705;SDS011;11014;53.076;18.208;2022-08-25T07:16:39;6.95;;;5.57;;
21705;SDS011;11014;53.076;18.208;2022-08-25T07:19:15;6.63;;;5.80;;
21705;SDS011;11014;53.076;18.208;2022-08-25T07:21:49;7.57;;;5.97;;
21705;SDS011;11014;53.076;18.208;2022-08-25T07:26:49;7.63;;;6.05;;
21705;SDS011;11014;53.076;18.208;2022-08-25T07:29:19;7.03;;;6.03;;
21705;SDS011;11014;53.076;18.208;2022-08-25T07:32:01;6.63;;;5.97;;
21705;SDS011;11014;53.076;18.208;2022-08-25T07:34:30;6.25;;;5.65;;
21705;SDS011;11014;53.076;18.208;2022-08-25T07:37:20;7.07;;;6.32;;
21705;SDS011;11014;53.076;18.208;2022-08-25T07:42:50;7.20;;;5.72;;
21705;SDS011;11014;53.076;18.208;2022-08-25T07:45:20;6.78;;;6.15;;
21705;SDS011;11014;53.076;18.208;2022-08-25T07:48:15;6.47;;;5.88;;
21705;SDS011;11014;53.076;18.208;2022-08-25T07:50:46;7.85;;;5.82;;
21705;SDS011;11014;53.076;18.208;2022-08-25T07:53:16;7.82;;;6.13;;
21705;SDS011;11014;53.076;18.208;2022-08-25T07:55:45;7.10;;;6.18;;
21705;SDS011;11014;53.076;18.208;2022-08-25T07:58:14;6.07;;;5.47;;
21705;SDS011;11014;53.076;18.208;2022-08-25T08:00:46;6.18;;;5.57;;
21705;SDS011;11014;53.076;18.208;2022-08-25T08:03:17;6.78;;;5.90;;
21705;SDS011;11014;53.076;18.208;2022-08-25T08:06:08;7.45;;;6.05;;
21705;SDS011;11014;53.076;18.208;2022-08-25T08:08:39;7.97;;;5.80;;
21705;SDS011;11014;53.076;18.208;2022-08-25T08:13:51;5.90;;;5.30;;
21705;SDS011;11014;53.076;18.208;2022-08-25T08:16:22;6.20;;;5.60;;
21705;SDS011;11014;53.076;18.208;2022-08-25T08:18:53;6.63;;;5.90;;
21705;SDS011;11014;53.076;18.208;2022-08-25T08:21:23;6.10;;;5.50;;
21705;SDS011;11014;53.076;18.208;2022-08-25T08:23:55;7.35;;;5.93;;
21705;SDS011;11014;53.076;18.208;2022-08-25T08:26:26;7.80;;;5.40;;
21705;SDS011;11014;53.076;18.208;2022-08-25T08:29:15;6.40;;;5.63;;
21705;SDS011;11014;53.076;18.208;2022-08-25T08:31:49;6.20;;;5.60;;
21705;SDS011;11014;53.076;18.208;2022-08-25T08:34:17;7.18;;;5.78;;
21705;SDS011;11014;53.076;18.208;2022-08-25T08:36:45;7.15;;;6.00;;
21705;SDS011;11014;53.076;18.208;2022-08-25T08:39:14;6.95;;;6.15;;
21705;SDS011;11014;53.076;18.208;2022-08-25T08:42:06;5.85;;;5.30;;
21705;SDS011;11014;53.076;18.208;2022-08-25T08:44:58;5.68;;;5.18;;
21705;SDS011;11014;53.076;18.208;2022-08-25T08:50:40;5.60;;;4.90;;
21705;SDS011;11014;53.076;18.208;2022-08-25T08:53:21;5.65;;;5.15;;
21705;SDS011;11014;53.076;18.208;2022-08-25T08:56:10;6.40;;;5.75;;
21705;SDS011;11014;53.076;18.208;2022-08-25T08:58:50;7.28;;;5.32;;
21705;SDS011;11014;53.076;18.208;2022-08-25T09:01:33;5.72;;;5.22;;
21705;SDS011;11014;53.076;18.208;2022-08-25T09:04:10;5.65;;;5.10;;
21705;SDS011;11014;53.076;18.208;2022-08-25T09:07:00;6.13;;;5.53;;
21705;SDS011;11014;53.076;18.208;2022-08-25T09:09:36;6.00;;;5.40;;
21705;SDS011;11014;53.076;18.208;2022-08-25T09:12:10;6.25;;;5.65;;
21705;SDS011;11014;53.076;18.208;2022-08-25T09:14:49;5.88;;;5.30;;
21705;SDS011;11014;53.076;18.208;2022-08-25T09:17:47;5.88;;;5.38;;
21705;SDS011;11014;53.076;18.208;2022-08-25T09:26:15;5.45;;;5.00;;
21705;SDS011;11014;53.076;18.208;2022-08-25T09:31:36;5.82;;;5.28;;
21705;SDS011;11014;53.076;18.208;2022-08-25T09:34:27;5.80;;;5.30;;
21705;SDS011;11014;53.076;18.208;2022-08-25T09:36:59;5.65;;;4.80;;
21705;SDS011;11014;53.076;18.208;2022-08-25T09:39:28;7.10;;;5.32;;
21705;SDS011;11014;53.076;18.208;2022-08-25T09:41:58;7.47;;;5.60;;
21705;SDS011;11014;53.076;18.208;2022-08-25T09:47:22;5.63;;;5.03;;
21705;SDS011;11014;53.076;18.208;2022-08-25T09:49:58;5.80;;;5.30;;
21705;SDS011;11014;53.076;18.208;2022-08-25T09:52:33;5.82;;;5.32;;
21705;SDS011;11014;53.076;18.208;2022-08-25T10:03:32;5.88;;;5.38;;
21705;SDS011;11014;53.076;18.208;2022-08-25T10:08:29;5.78;;;5.20;;
21705;SDS011;11014;53.076;18.208;2022-08-25T10:11:02;5.55;;;4.90;;
21705;SDS011;11014;53.076;18.208;2022-08-25T10:13:46;5.95;;;5.35;;
21705;SDS011;11014;53.076;18.208;2022-08-25T10:16:29;5.95;;;5.00;;
21705;SDS011;11014;53.076;18.208;2022-08-25T10:19:10;5.82;;;5.22;;
21705;SDS011;11014;53.076;18.208;2022-08-25T10:21:41;5.57;;;5.07;;
21705;SDS011;11014;53.076;18.208;2022-08-25T10:24:11;5.10;;;4.70;;
21705;SDS011;11014;53.076;18.208;2022-08-25T10:27:01;5.72;;;5.13;;
21705;SDS011;11014;53.076;18.208;2022-08-25T10:32:42;5.63;;;5.13;;
21705;SDS011;11014;53.076;18.208;2022-08-25T10:35:22;5.47;;;5.00;;
21705;SDS011;11014;53.076;18.208;2022-08-25T10:38:04;5.35;;;4.85;;
21705;SDS011;11014;53.076;18.208;2022-08-25T10:41:04;4.97;;;4.57;;
21705;SDS011;11014;53.076;18.208;2022-08-25T10:44:05;5.10;;;4.63;;
21705;SDS011;11014;53.076;18.208;2022-08-25T10:47:09;5.93;;;4.88;;
21705;SDS011;11014;53.076;18.208;2022-08-25T10:49:49;5.93;;;5.10;;
21705;SDS011;11014;53.076;18.208;2022-08-25T10:55:59;5.25;;;4.75;;
21705;SDS011;11014;53.076;18.208;2022-08-25T10:58:52;5.85;;;5.20;;
21705;SDS011;11014;53.076;18.208;2022-08-25T11:04:58;5.90;;;5.18;;
21705;SDS011;11014;53.076;18.208;2022-08-25T11:09:59;5.80;;;4.90;;
21705;SDS011;11014;53.076;18.208;2022-08-25T11:12:34;7.95;;;5.40;;
21705;SDS011;11014;53.076;18.208;2022-08-25T11:15:32;6.40;;;5.20;;
21705;SDS011;11014;53.076;18.208;2022-08-25T11:18:06;4.70;;;4.30;;
21705;SDS011;11014;53.076;18.208;2022-08-25T11:20:48;5.20;;;4.80;;
21705;SDS011;11014;53.076;18.208;2022-08-25T11:23:43;5.93;;;5.07;;
21705;SDS011;11014;53.076;18.208;2022-08-25T11:26:21;6.25;;;5.22;;
21705;SDS011;11014;53.076;18.208;2022-08-25T11:29:04;5.20;;;4.70;;
21705;SDS011;11014;53.076;18.208;2022-08-25T11:31:41;5.80;;;4.97;;
21705;SDS011;11014;53.076;18.208;2022-08-25T11:34:19;5.30;;;4.80;;
21705;SDS011;11014;53.076;18.208;2022-08-25T11:37:00;5.20;;;4.72;;
21705;SDS011;11014;53.076;18.208;2022-08-25T11:51:28;5.28;;;4.78;;
21705;SDS011;11014;53.076;18.208;2022-08-25T11:54:17;5.68;;;5.03;;
21705;SDS011;11014;53.076;18.208;2022-08-25T11:56:57;5.63;;;5.00;;
21705;SDS011;11014;53.076;18.208;2022-08-25T12:02:30;5.32;;;4.65;;
21705;SDS011;11014;53.076;18.208;2022-08-25T12:05:04;4.80;;;4.40;;
21705;SDS011;11014;53.076;18.208;2022-08-25T12:10:51;5.10;;;4.70;;
21705;SDS011;11014;53.076;18.208;2022-08-25T12:13:37;5.18;;;4.68;;
21705;SDS011;11014;53.076;18.208;2022-08-25T12:16:06;4.88;;;4.47;;
21705;SDS011;11014;53.076;18.208;2022-08-25T12:18:59;5.28;;;4.50;;
21705;SDS011;11014;53.076;18.208;2022-08-25T12:41:20;5.18;;;4.68;;
21705;SDS011;11014;53.076;18.208;2022-08-25T12:44:33;4.85;;;4.45;;
21705;SDS011;11014;53.076;18.208;2022-08-25T12:47:10;5.13;;;4.65;;
21705;SDS011;11014;53.076;18.208;2022-08-25T12:50:23;5.00;;;4.60;;
21705;SDS011;11014;53.076;18.208;2022-08-25T12:56:15;5.45;;;4.95;;
21705;SDS011;11014;53.076;18.208;2022-08-25T12:59:11;4.70;;;4.30;;
21705;SDS011;11014;53.076;18.208;2022-08-25T13:02:04;4.82;;;4.40;;
21705;SDS011;11014;53.076;18.208;2022-08-25T13:11:34;4.90;;;4.50;;
21705;SDS011;11014;53.076;18.208;2022-08-25T13:18:50;4.70;;;4.30;;
21705;SDS011;11014;53.076;18.208;2022-08-25T13:21:23;5.18;;;4.68;;
21705;SDS011;11014;53.076;18.208;2022-08-25T13:23:58;5.45;;;4.60;;
21705;SDS011;11014;53.076;18.208;2022-08-25T13:26:35;4.85;;;4.40;;
21705;SDS011;11014;53.076;18.208;2022-08-25T13:29:18;4.93;;;4.53;;
21705;SDS011;11014;53.076;18.208;2022-08-25T13:32:01;5.47;;;4.80;;
21705;SDS011;11014;53.076;18.208;2022-08-25T13:34:37;5.78;;;4.65;;
21705;SDS011;11014;53.076;18.208;2022-08-25T13:37:13;4.97;;;4.47;;
21705;SDS011;11014;53.076;18.208;2022-08-25T13:42:49;5.00;;;4.50;;
21705;SDS011;11014;53.076;18.208;2022-08-25T13:45:26;5.25;;;4.68;;
21705;SDS011;11014;53.076;18.208;2022-08-25T13:47:58;4.95;;;4.50;;
21705;SDS011;11014;53.076;18.208;2022-08-25T13:52:59;6.72;;;5.00;;
21705;SDS011;11014;53.076;18.208;2022-08-25T13:58:19;6.07;;;4.50;;
21705;SDS011;11014;53.076;18.208;2022-08-25T14:04:24;4.68;;;4.25;;
21705;SDS011;11014;53.076;18.208;2022-08-25T14:07:05;7.40;;;4.45;;
21705;SDS011;11014;53.076;18.208;2022-08-25T14:09:57;6.93;;;4.13;;
21705;SDS011;11014;53.076;18.208;2022-08-25T14:12:37;4.85;;;4.13;;
21705;SDS011;11014;53.076;18.208;2022-08-25T14:15:25;5.78;;;4.45;;
21705;SDS011;11014;53.076;18.208;2022-08-25T14:18:08;5.15;;;4.20;;
21705;SDS011;11014;53.076;18.208;2022-08-25T14:26:07;8.98;;;4.60;;
21705;SDS011;11014;53.076;18.208;2022-08-25T14:28:36;6.22;;;4.28;;
21705;SDS011;11014;53.076;18.208;2022-08-25T14:31:08;6.07;;;4.00;;
21705;SDS011;11014;53.076;18.208;2022-08-25T14:33:47;6.15;;;4.18;;
21705;SDS011;11014;53.076;18.208;2022-08-25T14:36:21;6.28;;;4.35;;
21705;SDS011;11014;53.076;18.208;2022-08-25T14:38:50;6.10;;;3.72;;
21705;SDS011;11014;53.076;18.208;2022-08-25T14:41:22;7.65;;;3.88;;
21705;SDS011;11014;53.076;18.208;2022-08-25T14:43:52;7.07;;;4.50;;
21705;SDS011;11014;53.076;18.208;2022-08-25T14:46:22;5.72;;;3.88;;
21705;SDS011;11014;53.076;18.208;2022-08-25T14:48:55;5.03;;;4.35;;
21705;SDS011;11014;53.076;18.208;2022-08-25T14:51:27;4.63;;;4.05;;
21705;SDS011;11014;53.076;18.208;2022-08-25T14:53:58;6.65;;;4.07;;
21705;SDS011;11014;53.076;18.208;2022-08-25T14:56:30;6.15;;;4.03;;
21705;SDS011;11014;53.076;18.208;2022-08-25T14:59:00;5.90;;;4.18;;
21705;SDS011;11014;53.076;18.208;2022-08-25T15:01:31;5.72;;;4.28;;
21705;SDS011;11014;53.076;18.208;2022-08-25T15:04:02;5.50;;;3.83;;
21705;SDS011;11014;53.076;18.208;2022-08-25T15:06:35;8.35;;;4.13;;
21705;SDS011;11014;53.076;18.208;2022-08-25T15:09:05;5.70;;;3.90;;
21705;SDS011;11014;53.076;18.208;2022-08-25T15:11:42;7.95;;;4.57;;
21705;SDS011;11014;53.076;18.208;2022-08-25T15:14:17;4.20;;;3.80;;
21705;SDS011;11014;53.076;18.208;2022-08-25T15:17:00;6.50;;;3.78;;
21705;SDS011;11014;53.076;18.208;2022-08-25T15:19:29;6.03;;;3.92;;
21705;SDS011;11014;53.076;18.208;2022-08-25T15:21:58;6.97;;;3.85;;
21705;SDS011;11014;53.076;18.208;2022-08-25T15:24:28;6.43;;;4.13;;
21705;SDS011;11014;53.076;18.208;2022-08-25T15:26:57;7.03;;;3.97;;
21705;SDS011;11014;53.076;18.208;2022-08-25T15:29:28;6.05;;;4.00;;
21705;SDS011;11014;53.076;18.208;2022-08-25T15:31:59;4.88;;;3.42;;
21705;SDS011;11014;53.076;18.208;2022-08-25T15:34:28;6.40;;;4.00;;
21705;SDS011;11014;53.076;18.208;2022-08-25T15:36:57;7.20;;;4.20;;
21705;SDS011;11014;53.076;18.208;2022-08-25T15:39:33;6.07;;;4.22;;
21705;SDS011;11014;53.076;18.208;2022-08-25T15:42:03;7.03;;;4.05;;
21705;SDS011;11014;53.076;18.208;2022-08-25T15:44:32;5.22;;;3.90;;
21705;SDS011;11014;53.076;18.208;2022-08-25T15:47:03;7.50;;;3.92;;
21705;SDS011;11014;53.076;18.208;2022-08-25T15:49:32;6.82;;;4.00;;
21705;SDS011;11014;53.076;18.208;2022-08-25T15:52:01;6.65;;;4.18;;
21705;SDS011;11014;53.076;18.208;2022-08-25T15:54:32;6.32;;;3.95;;
21705;SDS011;11014;53.076;18.208;2022-08-25T15:57:02;5.50;;;3.80;;
21705;SDS011;11014;53.076;18.208;2022-08-25T15:59:36;7.93;;;4.20;;
21705;SDS011;11014;53.076;18.208;2022-08-25T16:02:08;7.03;;;4.30;;
21705;SDS011;11014;53.076;18.208;2022-08-25T16:04:42;8.05;;;4.15;;
21705;SDS011;11014;53.076;18.208;2022-08-25T16:07:10;7.90;;;4.10;;
21705;SDS011;11014;53.076;18.208;2022-08-25T16:09:40;9.98;;;4.32;;
21705;SDS011;11014;53.076;18.208;2022-08-25T16:12:10;11.00;;;4.22;;
21705;SDS011;11014;53.076;18.208;2022-08-25T16:14:39;6.78;;;3.63;;
21705;SDS011;11014;53.076;18.208;2022-08-25T16:17:08;7.68;;;4.05;;
21705;SDS011;11014;53.076;18.208;2022-08-25T16:19:37;8.30;;;4.32;;
21705;SDS011;11014;53.076;18.208;2022-08-25T16:22:06;8.77;;;3.88;;
21705;SDS011;11014;53.076;18.208;2022-08-25T16:24:41;10.32;;;4.10;;
21705;SDS011;11014;53.076;18.208;2022-08-25T16:27:13;6.57;;;4.10;;
21705;SDS011;11014;53.076;18.208;2022-08-25T16:29:43;7.72;;;4.50;;
21705;SDS011;11014;53.076;18.208;2022-08-25T16:32:13;7.90;;;3.80;;
21705;SDS011;11014;53.076;18.208;2022-08-25T16:34:42;11.53;;;4.97;;
21705;SDS011;11014;53.076;18.208;2022-08-25T16:37:11;9.90;;;5.38;;
21705;SDS011;11014;53.076;18.208;2022-08-25T16:39:40;7.72;;;4.07;;
21705;SDS011;11014;53.076;18.208;2022-08-25T16:42:13;10.85;;;5.03;;
21705;SDS011;11014;53.076;18.208;2022-08-25T16:44:43;8.43;;;4.20;;
21705;SDS011;11014;53.076;18.208;2022-08-25T16:47:11;10.90;;;4.20;;
21705;SDS011;11014;53.076;18.208;2022-08-25T16:49:44;11.13;;;4.18;;
21705;SDS011;11014;53.076;18.208;2022-08-25T16:52:14;7.22;;;4.72;;
21705;SDS011;11014;53.076;18.208;2022-08-25T16:55:26;10.27;;;4.50;;
21705;SDS011;11014;53.076;18.208;2022-08-25T16:58:06;11.73;;;4.78;;
21705;SDS011;11014;53.076;18.208;2022-08-25T17:00:40;8.10;;;4.53;;
21705;SDS011;11014;53.076;18.208;2022-08-25T17:03:11;11.73;;;4.65;;
21705;SDS011;11014;53.076;18.208;2022-08-25T17:05:40;11.82;;;4.82;;
21705;SDS011;11014;53.076;18.208;2022-08-25T17:08:10;14.13;;;5.10;;